Time;durP1;ratioP1;P1;durP2;ratioP2;P2;SDS_P1;SDS_P2;PMS_P1;PMS_P2;Temp;Humidity;BMP_temperature;BMP_pressure;BME280_temperature;BME280_humidity;BME280_pressure;Samples;Min_cycle;Max_cycle;Signal;HPM_P1;HPM_P2
2023/06/18 00:03:56;;;;;;;2.65;1.42;;;;;;;14.66;56.13;101430.28;10281102;29;20059;-74
2023/06/18 00:08:59;;;;;;;3.75;1.50;;;;;;;14.49;55.86;101447.28;10272929;28;20063;-74
2023/06/18 00:14:01;;;;;;;2.22;1.10;;;;;;;14.45;56.19;101432.41;10280301;28;20047;-74
2023/06/18 00:19:03;;;;;;;2.10;0.88;;;;;;;14.56;55.84;101435.88;10279404;29;20494;-73
2023/06/18 00:24:05;;;;;;;1.63;1.00;;;;;;;14.50;56.42;101429.59;10271707;29;20035;-74
2023/06/18 00:29:07;;;;;;;1.15;0.57;;;;;;;14.28;56.54;101452.09;10278632;28;20039;-74
2023/06/18 00:34:12;;;;;;;2.15;1.05;;;;;;;14.40;56.38;101455.31;10285517;28;20041;-74
2023/06/18 00:39:15;;;;;;;1.85;1.00;;;;;;;14.30;56.43;101455.38;10288326;29;20047;-74
2023/06/18 00:44:21;;;;;;;3.13;0.98;;;;;;;14.30;57.28;101449.03;10281225;29;20050;-74
2023/06/18 00:49:23;;;;;;;1.48;1.30;;;;;;;14.33;56.97;101448.47;10289020;28;20059;-74
2023/06/18 00:54:28;;;;;;;2.25;1.20;;;;;;;14.24;56.38;101466.75;10288588;29;20053;-74
2023/06/18 00:59:32;;;;;;;1.52;0.90;;;;;;;14.23;56.78;101448.53;10267555;29;20051;-73
2023/06/18 01:04:36;;;;;;;3.92;1.10;;;;;;;14.26;56.24;101464.53;10270195;29;20054;-74
2023/06/18 01:09:40;;;;;;;3.10;1.20;;;;;;;14.36;55.94;101451.47;10283979;28;20533;-74
2023/06/18 01:14:50;;;;;;;0.70;0.38;;;;;;;14.17;56.38;101465.13;10276232;28;20055;-74
2023/06/18 01:20:07;;;;;;;3.55;1.00;;;;;;;14.18;55.49;101464.00;10286111;29;20047;-73
2023/06/18 01:25:10;;;;;;;0.80;0.45;;;;;;;14.09;55.84;101465.72;10286515;29;20046;-73
2023/06/18 01:30:13;;;;;;;0.60;0.55;;;;;;;14.09;55.98;101470.44;10282742;29;20036;-74
2023/06/18 01:35:16;;;;;;;1.50;0.85;;;;;;;14.17;55.27;101478.09;10283115;29;20039;-73
2023/06/18 01:40:36;;;;;;;2.10;0.70;;;;;;;14.22;55.02;101467.00;10284276;28;20078;-74
2023/06/18 01:45:57;;;;;;;2.65;0.90;;;;;;;14.25;55.38;101479.44;10288942;28;20059;-74
2023/06/18 01:51:01;;;;;;;1.55;0.90;;;;;;;14.19;53.94;101479.47;10282515;29;20039;-74
2023/06/18 01:56:03;;;;;;;1.38;0.65;;;;;;;14.29;54.20;101480.53;10269102;29;20055;-74
2023/06/18 02:01:05;;;;;;;1.27;0.77;;;;;;;14.75;53.34;101483.81;10267037;28;20061;-74
2023/06/18 02:06:08;;;;;;;1.95;0.73;;;;;;;14.91;52.36;101476.22;10268328;29;20043;-74
2023/06/18 02:11:10;;;;;;;0.63;0.60;;;;;;;15.11;51.99;101475.22;10300286;28;20042;-73
2023/06/18 02:16:13;;;;;;;1.67;0.80;;;;;;;15.16;51.63;101478.75;10325256;28;20047;-73
2023/06/18 02:21:16;;;;;;;1.58;0.75;;;;;;;15.09;51.66;101472.72;10268914;29;20560;-73
2023/06/18 02:26:19;;;;;;;1.10;0.80;;;;;;;15.17;51.70;101488.69;10280648;28;20047;-74
2023/06/18 02:31:21;;;;;;;2.13;0.70;;;;;;;15.22;51.22;101485.06;10282323;29;20047;-73
2023/06/18 02:36:23;;;;;;;0.88;0.60;;;;;;;15.25;50.92;101485.28;10283053;28;20042;-74
2023/06/18 02:41:26;;;;;;;1.65;0.70;;;;;;;15.54;50.79;101481.66;10281142;29;20477;-74
2023/06/18 02:46:29;;;;;;;2.80;1.75;;;;;;;15.83;49.98;101487.19;10272341;28;20051;-73
2023/06/18 02:51:31;;;;;;;1.00;0.65;;;;;;;16.04;49.72;101485.78;10295147;28;20047;-74
2023/06/18 02:56:33;;;;;;;0.82;0.82;;;;;;;16.19;49.09;101495.84;10263379;29;20414;-74
2023/06/18 03:01:37;;;;;;;1.52;0.90;;;;;;;16.35;48.38;101488.97;10278490;29;20138;-74
2023/06/18 03:06:39;;;;;;;0.17;0.17;;;;;;;16.69;48.48;101494.31;10281268;29;20054;-73
2023/06/18 03:11:42;;;;;;;1.42;0.63;;;;;;;16.72;48.08;101492.88;10269305;29;20060;-74
2023/06/18 03:16:46;;;;;;;2.22;0.65;;;;;;;16.98;48.03;101507.13;10274151;28;20495;-74
2023/06/18 03:21:48;;;;;;;0.90;0.70;;;;;;;16.90;48.06;101497.56;10277631;29;20055;-74
2023/06/18 03:26:51;;;;;;;2.35;0.80;;;;;;;17.39;47.41;101502.50;10279996;29;20047;-74
2023/06/18 03:31:55;;;;;;;0.93;0.75;;;;;;;17.77;46.17;101508.75;10274241;29;20055;-74
2023/06/18 03:37:00;;;;;;;0.75;0.75;;;;;;;17.80;46.12;101512.03;10273694;29;20043;-74
2023/06/18 03:42:03;;;;;;;0.77;0.73;;;;;;;17.92;45.67;101502.06;10269954;29;20035;-74
2023/06/18 03:47:05;;;;;;;0.93;0.70;;;;;;;17.76;46.22;101498.78;10280400;29;20059;-74
2023/06/18 03:52:08;;;;;;;1.83;1.00;;;;;;;17.80;46.19;101510.06;10277245;29;20043;-74
2023/06/18 03:57:12;;;;;;;0.85;0.80;;;;;;;18.19;46.08;101508.69;10281272;29;20051;-74
2023/06/18 04:02:15;;;;;;;1.60;0.80;;;;;;;18.84;44.25;101498.03;10267226;29;20056;-74
2023/06/18 04:07:19;;;;;;;1.40;1.08;;;;;;;18.93;44.34;101507.28;10288623;28;20418;-75
2023/06/18 04:12:23;;;;;;;2.85;0.80;;;;;;;19.00;43.90;101506.81;10271475;29;20058;-74
2023/06/18 04:17:26;;;;;;;1.17;0.82;;;;;;;18.93;44.06;101517.56;10293346;28;20047;-74
2023/06/18 04:22:30;;;;;;;3.47;0.90;;;;;;;19.15;43.90;101513.97;10294605;28;20047;-74
2023/06/18 04:27:32;;;;;;;1.10;0.80;;;;;;;19.08;43.84;101513.56;10294651;28;20059;-73
2023/06/18 04:32:35;;;;;;;3.72;0.85;;;;;;;19.88;42.60;101509.75;10281204;29;20502;-74
2023/06/18 04:37:38;;;;;;;1.20;0.98;;;;;;;19.74;42.78;101507.06;10287209;28;20050;-73
2023/06/18 04:42:41;;;;;;;1.17;0.70;;;;;;;19.92;42.57;101510.72;10284649;29;20063;-74
2023/06/18 04:47:48;;;;;;;3.08;1.08;;;;;;;19.87;42.50;101502.53;10289455;29;20058;-74
2023/06/18 04:52:51;;;;;;;1.60;1.00;;;;;;;20.22;42.42;101499.84;10283214;29;20055;-74
2023/06/18 04:57:56;;;;;;;2.22;0.82;;;;;;;20.80;42.11;101506.94;10292153;29;20080;-74
2023/06/18 05:03:04;;;;;;;2.60;0.93;;;;;;;21.24;40.45;101502.94;10273743;29;20066;-74
2023/06/18 05:08:07;;;;;;;1.23;0.85;;;;;;;21.90;39.25;101509.78;10293760;29;20046;-74
2023/06/18 05:13:09;;;;;;;1.80;1.10;;;;;;;21.21;40.03;101504.44;10288081;28;20039;-74
2023/06/18 05:18:12;;;;;;;2.35;0.80;;;;;;;21.54;40.30;101504.69;10286732;28;20406;-74
2023/06/18 05:23:14;;;;;;;1.35;0.80;;;;;;;21.94;39.29;101512.72;10270294;29;20419;-74
2023/06/18 05:28:19;;;;;;;2.45;0.82;;;;;;;21.20;39.96;101515.94;10284242;29;20043;-74
2023/06/18 05:33:22;;;;;;;1.20;0.98;;;;;;;21.48;39.40;101510.78;10284647;29;20062;-73
2023/06/18 05:38:31;;;;;;;2.83;0.93;;;;;;;22.16;38.35;101509.66;10285758;28;20043;-74
2023/06/18 05:43:33;;;;;;;1.98;1.10;;;;;;;21.91;38.59;101508.63;10284660;29;20078;-74
2023/06/18 05:48:37;;;;;;;3.20;0.90;;;;;;;22.29;37.54;101518.94;10259894;29;20074;-74
2023/06/18 05:53:52;;;;;;;1.00;0.90;;;;;;;22.76;37.80;101519.59;10282088;29;20039;-74
2023/06/18 05:58:55;;;;;;;1.98;1.00;;;;;;;22.79;36.89;101520.88;10284359;28;20062;-74
2023/06/18 06:03:57;;;;;;;1.83;1.00;;;;;;;22.01;37.56;101528.94;10266898;29;20047;-74
2023/06/18 06:09:00;;;;;;;3.72;1.20;;;;;;;22.09;37.19;101528.13;10260417;29;20047;-74
2023/06/18 06:14:02;;;;;;;0.98;0.80;;;;;;;22.85;35.36;101531.53;10284585;29;20058;-74
2023/06/18 06:19:05;;;;;;;2.08;1.05;;;;;;;23.35;35.31;101516.56;10283602;29;20058;-74
2023/06/18 06:24:07;;;;;;;0.93;0.85;;;;;;;23.88;34.02;101520.38;10284750;29;20442;-74
2023/06/18 06:29:09;;;;;;;2.25;1.10;;;;;;;24.17;32.87;101518.50;10265949;29;20400;-74
2023/06/18 06:34:14;;;;;;;2.90;1.00;;;;;;;24.16;32.36;101520.50;10273651;29;20035;-75
2023/06/18 06:39:18;;;;;;;1.33;0.70;;;;;;;23.73;33.82;101521.91;10283298;29;20494;-72
2023/06/18 06:44:21;;;;;;;2.77;1.10;;;;;;;24.08;32.64;101526.22;10283673;28;20454;-74
2023/06/18 06:49:29;;;;;;;2.75;0.90;;;;;;;24.52;31.95;101533.69;10280011;28;20081;-74
2023/06/18 06:54:44;;;;;;;2.50;1.10;;;;;;;25.52;29.76;101540.19;10282751;29;20043;-72
2023/06/18 06:59:47;;;;;;;0.95;0.90;;;;;;;25.80;29.36;101540.13;10268706;29;20044;-74
2023/06/18 07:04:49;;;;;;;0.47;0.47;;;;;;;24.29;30.86;101549.38;10280433;29;20051;-74
2023/06/18 07:09:51;;;;;;;1.63;0.98;;;;;;;24.09;32.14;101539.06;10278848;28;20055;-75
2023/06/18 07:14:54;;;;;;;1.63;0.82;;;;;;;24.53;31.11;101535.31;10283752;29;20043;-75
2023/06/18 07:19:57;;;;;;;1.42;0.90;;;;;;;24.33;31.23;101551.13;10276358;28;20056;-74
2023/06/18 07:24:59;;;;;;;5.10;1.10;;;;;;;24.17;31.91;101575.41;10283160;29;20415;-74
2023/06/18 07:30:02;;;;;;;1.35;0.90;;;;;;;24.63;30.38;101548.03;10281867;28;20051;-74
2023/06/18 07:35:05;;;;;;;1.20;0.93;;;;;;;24.46;30.47;101545.47;10280807;29;20490;-75
2023/06/18 07:40:08;;;;;;;1.90;1.17;;;;;;;24.73;30.42;101557.94;10277568;28;20514;-74
2023/06/18 07:45:11;;;;;;;1.45;0.95;;;;;;;24.50;30.64;101544.44;10247881;28;20058;-74
2023/06/18 07:50:13;;;;;;;2.33;0.82;;;;;;;24.71;29.68;101549.88;10281052;28;20066;-74
2023/06/18 07:55:15;;;;;;;4.32;0.93;;;;;;;24.75;30.27;101547.19;10280048;29;20046;-74
2023/06/18 08:00:17;;;;;;;3.30;1.10;;;;;;;24.83;29.80;101551.84;10280529;28;20050;-74
2023/06/18 08:05:20;;;;;;;0.63;0.60;;;;;;;24.79;29.80;101562.13;10276340;29;20051;-75
2023/06/18 08:10:22;;;;;;;1.85;0.93;;;;;;;24.72;30.01;101565.56;10279725;29;20035;-75
2023/06/18 08:15:24;;;;;;;1.88;1.17;;;;;;;24.45;30.33;101550.28;10281148;29;20043;-74
2023/06/18 08:20:27;;;;;;;1.58;0.90;;;;;;;24.73;29.49;101550.34;10282215;29;20047;-74
2023/06/18 08:25:29;;;;;;;5.93;0.82;;;;;;;24.72;30.07;101573.16;10280208;29;20039;-74
2023/06/18 08:30:31;;;;;;;1.63;0.70;;;;;;;24.57;30.76;101563.47;10281493;29;20507;-74
2023/06/18 08:35:33;;;;;;;2.47;0.88;;;;;;;24.98;30.17;101561.47;10277496;29;20043;-73
2023/06/18 08:40:50;;;;;;;1.30;1.00;;;;;;;24.91;29.46;101581.75;10277167;29;20050;-74
2023/06/18 08:45:53;;;;;;;0.90;0.77;;;;;;;24.24;30.17;101553.19;10270729;29;20113;-73
2023/06/18 08:51:04;;;;;;;2.03;0.95;;;;;;;24.46;30.79;101556.72;10285176;28;20043;-73
2023/06/18 08:56:07;;;;;;;2.45;1.00;;;;;;;24.54;31.66;101548.16;10284750;29;20047;-73
2023/06/18 09:01:10;;;;;;;4.13;1.00;;;;;;;24.20;31.18;101549.47;10286687;29;20051;-73
2023/06/18 09:06:12;;;;;;;1.23;0.88;;;;;;;24.23;31.33;101554.38;10284614;28;20051;-72
2023/06/18 09:11:15;;;;;;;0.77;0.77;;;;;;;24.64;30.79;101546.84;10284032;29;20035;-72
2023/06/18 09:16:17;;;;;;;1.10;0.80;;;;;;;23.38;31.50;101543.88;10283906;29;20422;-74
2023/06/18 09:21:39;;;;;;;2.85;0.88;;;;;;;22.09;33.01;101565.28;10268464;29;20062;-74
2023/06/18 09:26:41;;;;;;;1.67;1.02;;;;;;;21.48;34.90;101566.63;10281895;29;20043;-74
2023/06/18 09:31:47;;;;;;;2.15;0.90;;;;;;;20.29;34.71;101553.94;10268830;29;20418;-74
2023/06/18 09:36:50;;;;;;;1.08;0.98;;;;;;;19.82;36.48;101550.03;10286150;28;20082;-74
2023/06/18 09:41:55;;;;;;;1.42;1.33;;;;;;;19.44;38.03;101553.25;10268777;29;20051;-74
2023/06/18 09:46:57;;;;;;;1.75;0.90;;;;;;;18.79;39.02;101562.13;10264687;29;20039;-75
2023/06/18 09:52:00;;;;;;;0.75;0.70;;;;;;;18.80;39.52;101580.44;10283774;29;20505;-74
2023/06/18 09:57:04;;;;;;;1.25;0.85;;;;;;;18.58;37.95;101549.81;10247872;29;20043;-74
2023/06/18 10:02:07;;;;;;;2.22;1.17;;;;;;;18.58;39.69;101549.81;10267168;28;20047;-75
2023/06/18 10:07:16;;;;;;;2.28;1.00;;;;;;;18.73;39.84;101540.28;10274123;29;20051;-74
2023/06/18 10:12:18;;;;;;;1.88;1.10;;;;;;;18.79;39.11;101551.00;10278123;29;20494;-74
2023/06/18 10:17:27;;;;;;;1.55;0.28;;;;;;;18.80;38.91;101552.63;10283428;29;20337;-73
2023/06/18 10:22:35;;;;;;;0.63;0.63;;;;;;;18.59;39.32;101541.16;10264930;29;20046;-74
2023/06/18 10:27:37;;;;;;;0.95;0.77;;;;;;;18.43;38.85;101539.03;10282450;29;20054;-72
2023/06/18 10:32:42;;;;;;;1.65;0.80;;;;;;;18.71;40.14;101546.16;10276732;29;20039;-73
2023/06/18 10:37:44;;;;;;;0.70;0.70;;;;;;;18.70;39.01;101564.00;10263286;29;20042;-73
2023/06/18 10:42:47;;;;;;;1.95;0.85;;;;;;;18.42;39.14;101554.88;10279314;28;20055;-73
2023/06/18 10:48:16;;;;;;;1.50;0.93;;;;;;;18.26;40.48;101554.38;10275123;29;20048;-74
2023/06/18 10:53:22;;;;;;;0.70;0.70;;;;;;;18.44;40.16;101557.34;10271698;29;20050;-74
2023/06/18 10:58:35;;;;;;;2.10;0.90;;;;;;;18.37;39.63;101558.56;10265977;29;20040;-74
2023/06/18 11:03:38;;;;;;;1.88;0.88;;;;;;;18.30;40.16;101569.28;10274288;29;20145;-74
2023/06/18 11:08:40;;;;;;;1.25;0.63;;;;;;;18.25;39.88;101572.19;10276812;29;20043;-74
2023/06/18 11:13:55;;;;;;;2.53;0.90;;;;;;;18.02;40.10;101579.59;10278464;28;20054;-73
2023/06/18 11:19:02;;;;;;;1.75;0.70;;;;;;;18.06;39.89;101541.75;10248432;29;20048;-73
2023/06/18 11:24:04;;;;;;;0.50;0.50;;;;;;;18.26;39.24;101559.13;10266184;29;20071;-74
2023/06/18 11:29:07;;;;;;;0.90;0.70;;;;;;;18.33;38.73;101565.06;10267953;29;20542;-72
2023/06/18 11:34:11;;;;;;;2.17;0.93;;;;;;;18.15;39.56;101561.28;10266602;29;20035;-72
2023/06/18 11:39:13;;;;;;;0.90;0.70;;;;;;;18.33;39.07;101549.22;10267245;29;20510;-72
2023/06/18 11:44:24;;;;;;;2.03;0.70;;;;;;;18.27;38.96;101550.47;10260840;29;20494;-72
2023/06/18 11:49:26;;;;;;;1.38;0.70;;;;;;;18.22;38.91;101549.75;10275332;28;20035;-72
2023/06/18 11:54:28;;;;;;;2.22;0.70;;;;;;;18.14;39.00;101540.19;10272791;29;20040;-73
2023/06/18 11:59:31;;;;;;;2.33;1.05;;;;;;;18.06;39.49;101535.38;10258074;29;20040;-72
2023/06/18 12:04:33;;;;;;;0.95;0.60;;;;;;;18.10;39.36;101547.50;10282037;28;20066;-74
2023/06/18 12:09:36;;;;;;;2.15;1.05;;;;;;;18.09;38.77;101537.53;10270822;29;20047;-74
2023/06/18 12:14:49;;;;;;;1.42;1.00;;;;;;;17.97;38.83;101540.00;10241743;29;20048;-74
2023/06/18 12:20:02;;;;;;;2.95;0.88;;;;;;;18.16;38.59;101532.38;10245185;28;20403;-73
2023/06/18 12:25:05;;;;;;;3.13;0.73;;;;;;;18.24;39.01;101523.31;10278551;28;20937;-74
2023/06/18 12:30:09;;;;;;;2.17;0.95;;;;;;;18.21;38.47;101539.75;10281612;29;20054;-73
2023/06/18 12:35:15;;;;;;;0.40;0.30;;;;;;;18.10;38.38;101521.69;10282882;29;20117;-74
2023/06/18 12:40:20;;;;;;;0.68;0.60;;;;;;;18.20;37.50;101530.59;10284238;29;20039;-74
2023/06/18 12:45:23;;;;;;;1.55;0.80;;;;;;;18.16;37.86;101532.38;10283231;28;20058;-73
2023/06/18 12:50:38;;;;;;;1.50;1.00;;;;;;;17.92;38.23;101515.94;10262714;29;20058;-73
2023/06/18 12:55:40;;;;;;;0.57;0.57;;;;;;;17.95;38.79;101512.53;10289022;28;20050;-73
2023/06/18 13:00:43;;;;;;;0.57;0.57;;;;;;;18.13;38.16;101504.41;10283744;29;20047;-73
2023/06/18 13:05:46;;;;;;;3.00;1.00;;;;;;;18.27;37.67;101503.25;10272836;29;20062;-71
2023/06/18 13:10:51;;;;;;;0.63;0.40;;;;;;;18.23;37.64;101496.66;10278642;29;20059;-72
2023/06/18 13:15:54;;;;;;;0.63;0.63;;;;;;;18.21;36.66;101511.97;10285623;29;20151;-74
2023/06/18 13:20:58;;;;;;;1.50;0.80;;;;;;;18.20;37.18;101490.88;10279411;29;20044;-74
2023/06/18 13:26:00;;;;;;;0.95;0.50;;;;;;;18.22;36.64;101495.03;10277603;29;20067;-74
2023/06/18 13:31:02;;;;;;;0.75;0.55;;;;;;;18.05;37.00;101508.75;10282275;28;20063;-74
2023/06/18 13:36:07;;;;;;;0.82;0.68;;;;;;;18.17;37.15;101514.56;10281685;28;20047;-74
2023/06/18 13:41:09;;;;;;;0.93;0.73;;;;;;;18.02;36.73;101492.66;10285491;28;20059;-75
2023/06/18 13:46:11;;;;;;;2.05;0.65;;;;;;;17.87;37.47;101488.25;10276311;29;20048;-75
2023/06/18 13:51:14;;;;;;;2.05;0.30;;;;;;;17.97;37.13;101493.59;10275213;28;20055;-75
2023/06/18 13:56:16;;;;;;;0.70;0.32;;;;;;;17.94;37.33;101490.63;10282593;29;20043;-75
2023/06/18 14:01:19;;;;;;;0.77;0.60;;;;;;;18.07;37.44;101478.69;10277404;29;20513;-74
2023/06/18 14:06:22;;;;;;;0.38;0.38;;;;;;;18.29;37.10;101486.25;10286422;28;20059;-74
2023/06/18 14:11:24;;;;;;;2.88;0.60;;;;;;;18.35;36.40;101479.44;10280757;29;20151;-73
2023/06/18 14:16:27;;;;;;;0.82;0.80;;;;;;;18.22;36.21;101489.47;10279402;28;20062;-72
2023/06/18 14:21:30;;;;;;;0.65;0.65;;;;;;;17.97;36.80;101479.72;10286812;28;20051;-72
2023/06/18 14:26:32;;;;;;;0.50;0.47;;;;;;;18.02;37.28;101476.81;10279042;28;20053;-74
2023/06/18 14:31:34;;;;;;;0.82;0.80;;;;;;;18.06;36.88;101497.31;10277465;29;20042;-74
2023/06/18 14:36:36;;;;;;;1.58;0.90;;;;;;;17.87;37.53;101484.66;10262197;28;20529;-73
2023/06/18 14:41:39;;;;;;;0.77;0.77;;;;;;;17.79;37.28;101475.13;10271288;29;20047;-73
2023/06/18 14:46:41;;;;;;;1.73;0.80;;;;;;;17.83;37.11;101478.91;10266282;29;20509;-73
2023/06/18 14:51:43;;;;;;;0.90;0.80;;;;;;;17.84;37.00;101475.00;10271078;29;20051;-73
2023/06/18 14:56:50;;;;;;;2.17;0.93;;;;;;;17.91;36.83;101474.59;10282226;29;20047;-73
2023/06/18 15:01:52;;;;;;;1.33;0.80;;;;;;;17.94;35.98;101479.53;10280996;29;20051;-73
2023/06/18 15:06:55;;;;;;;0.45;0.35;;;;;;;17.91;36.45;101492.09;10274507;28;20478;-73
2023/06/18 15:11:58;;;;;;;1.10;0.82;;;;;;;17.76;36.34;101479.34;10283616;29;20051;-73
2023/06/18 15:17:00;;;;;;;1.05;0.63;;;;;;;17.68;36.74;101480.03;10294851;28;20054;-75
2023/06/18 15:22:02;;;;;;;4.20;1.02;;;;;;;17.59;37.17;101483.81;10277814;29;20051;-76
2023/06/18 15:27:05;;;;;;;1.10;0.77;;;;;;;17.77;37.61;101477.38;10255152;29;20056;-75
2023/06/18 15:32:07;;;;;;;1.17;0.70;;;;;;;17.67;38.06;101481.13;10280655;29;20047;-75
2023/06/18 15:37:09;;;;;;;6.75;2.03;;;;;;;17.73;38.37;101474.41;10277454;28;20051;-74
2023/06/18 15:42:16;;;;;;;1.90;0.70;;;;;;;17.76;37.89;101473.78;10270978;28;20063;-75
2023/06/18 15:47:18;;;;;;;0.23;0.20;;;;;;;17.88;38.31;101476.03;10281283;29;20055;-74
2023/06/18 15:52:21;;;;;;;8.70;1.15;;;;;;;17.87;38.12;101462.44;10280928;29;20039;-77
2023/06/18 15:57:23;;;;;;;0.95;0.50;;;;;;;17.85;38.33;101464.72;10282494;28;20043;-76
2023/06/18 16:02:27;;;;;;;2.95;0.90;;;;;;;17.87;38.01;101457.72;10280794;29;20047;-76
2023/06/18 16:07:30;;;;;;;1.33;0.95;;;;;;;17.85;37.46;101459.16;10281169;28;20055;-75
2023/06/18 16:12:33;;;;;;;1.30;0.90;;;;;;;17.59;37.98;101470.78;10267838;29;20639;-75
2023/06/18 16:17:35;;;;;;;1.90;0.95;;;;;;;17.34;38.44;101463.75;10269051;29;20069;-74
2023/06/18 16:22:37;;;;;;;1.75;0.77;;;;;;;17.30;38.62;101470.22;10273541;28;20058;-76
2023/06/18 16:27:39;;;;;;;2.10;1.10;;;;;;;17.25;38.65;101478.66;10277005;29;20047;-85
2023/06/18 16:32:42;;;;;;;0.85;0.60;;;;;;;17.12;39.00;101474.72;10278553;29;20055;-80
2023/06/18 16:37:44;;;;;;;5.03;0.90;;;;;;;16.93;39.23;101460.09;10265953;29;20522;-79
2023/06/18 16:42:47;;;;;;;4.75;1.05;;;;;;;16.95;39.52;101472.50;10259458;29;20054;-81
2023/06/18 16:47:49;;;;;;;0.93;0.80;;;;;;;16.93;39.53;101466.44;10274962;29;20138;-81
2023/06/18 16:52:51;;;;;;;1.75;0.80;;;;;;;17.11;39.07;101464.75;10279256;29;20046;-84
2023/06/18 16:57:53;;;;;;;2.03;1.15;;;;;;;17.01;39.24;101473.22;10276685;29;20043;-82
2023/06/18 17:02:56;;;;;;;4.03;2.00;;;;;;;16.81;39.78;101475.22;10269004;29;20047;-84
2023/06/18 17:07:58;;;;;;;1.38;0.88;;;;;;;16.76;39.83;101467.00;10277766;28;20055;-82
2023/06/18 17:13:05;;;;;;;0.88;0.60;;;;;;;16.83;39.70;101472.16;10280575;28;20062;-81
2023/06/18 17:18:07;;;;;;;0.75;0.70;;;;;;;16.96;39.43;101460.28;10277286;29;20043;-93
2023/06/18 17:23:10;;;;;;;1.10;1.00;;;;;;;17.01;39.33;101468.53;10269345;28;20422;-77
2023/06/18 17:28:13;;;;;;;4.07;1.35;;;;;;;16.93;40.33;101466.44;10274991;28;20055;-79
2023/06/18 17:33:15;;;;;;;1.45;1.00;;;;;;;16.97;40.47;101461.13;10255961;29;20046;-81
2023/06/18 17:38:17;;;;;;;1.00;0.90;;;;;;;16.96;40.30;101468.59;10271200;29;20036;-82
2023/06/18 17:43:20;;;;;;;2.55;1.08;;;;;;;16.71;40.74;101463.50;10275426;29;20147;-81
2023/06/18 17:48:22;;;;;;;1.70;1.20;;;;;;;16.56;41.57;101461.78;10270187;28;20067;-77
2023/06/18 17:53:24;;;;;;;0.77;0.60;;;;;;;16.47;41.47;101464.38;10282754;29;20055;-75
2023/06/18 17:58:27;;;;;;;0.93;0.80;;;;;;;16.38;41.66;101470.91;10285759;29;20035;-76
2023/06/18 18:03:32;;;;;;;1.23;0.82;;;;;;;16.20;41.67;101476.16;10274881;29;20410;-72
2023/06/18 18:08:34;;;;;;;1.30;1.02;;;;;;;16.14;42.05;101473.75;10284659;28;20047;-73
2023/06/18 18:13:37;;;;;;;1.27;1.00;;;;;;;15.99;42.89;101469.25;10279716;29;20039;-73
2023/06/18 18:18:39;;;;;;;1.58;1.00;;;;;;;15.95;42.66;101471.78;10298676;28;20063;-74
2023/06/18 18:23:41;;;;;;;1.98;0.90;;;;;;;15.81;43.79;101470.88;10284395;28;20066;-74
2023/06/18 18:28:43;;;;;;;1.90;1.13;;;;;;;15.84;43.12;101463.91;10283822;29;20047;-74
2023/06/18 18:33:46;;;;;;;1.15;1.05;;;;;;;15.79;44.10;101473.09;10283707;29;20413;-73
2023/06/18 18:38:49;;;;;;;4.07;1.10;;;;;;;15.77;43.97;101466.22;10262485;28;20410;-73
2023/06/18 18:43:52;;;;;;;1.98;1.38;;;;;;;16.03;43.96;101475.03;10283997;29;20093;-75
2023/06/18 18:48:54;;;;;;;1.20;1.00;;;;;;;15.86;43.71;101476.34;10265922;29;20466;-75
2023/06/18 18:53:56;;;;;;;3.10;1.60;;;;;;;15.59;44.36;101465.03;10284105;29;20050;-76
2023/06/18 18:59:01;;;;;;;0.95;0.88;;;;;;;15.41;44.93;101471.31;10298929;28;20421;-75
2023/06/18 19:04:03;;;;;;;2.13;1.25;;;;;;;15.34;45.10;101471.66;10280388;29;20054;-74
2023/06/18 19:09:06;;;;;;;1.17;0.93;;;;;;;15.36;45.66;101473.00;10279761;29;20055;-76
2023/06/18 19:14:09;;;;;;;1.58;1.10;;;;;;;15.24;45.54;101475.34;10278332;29;20046;-75
2023/06/18 19:19:11;;;;;;;2.35;1.30;;;;;;;15.13;46.44;101479.34;10269407;29;20137;-74
2023/06/18 19:24:15;;;;;;;2.15;1.30;;;;;;;15.04;46.99;101472.78;10281260;29;20043;-75
2023/06/18 19:29:17;;;;;;;8.73;1.20;;;;;;;15.14;47.25;101475.47;10253823;29;20073;-76
2023/06/18 19:34:23;;;;;;;4.63;1.38;;;;;;;14.97;47.54;101481.41;10281475;28;20525;-75
2023/06/18 19:39:25;;;;;;;2.47;1.40;;;;;;;15.02;47.99;101477.78;10265677;28;20086;-76
2023/06/18 19:44:27;;;;;;;2.42;1.15;;;;;;;15.18;47.87;101481.22;10264000;29;20541;-74
2023/06/18 19:49:29;;;;;;;4.63;1.63;;;;;;;15.16;47.22;101483.47;10282647;29;20047;-75
2023/06/18 19:54:34;;;;;;;3.67;1.88;;;;;;;15.15;48.06;101481.81;10281632;28;20051;-75
2023/06/18 19:59:37;;;;;;;2.17;1.15;;;;;;;15.01;48.22;101476.94;10269438;29;20038;-75
2023/06/18 20:04:39;;;;;;;3.85;1.58;;;;;;;14.92;48.55;101477.84;10264801;29;20039;-77
2023/06/18 20:09:41;;;;;;;6.03;1.75;;;;;;;14.82;48.72;101480.72;10282125;28;20458;-77
2023/06/18 20:14:44;;;;;;;4.25;2.15;;;;;;;14.63;48.79;101481.44;10273389;29;20039;-75
2023/06/18 20:19:47;;;;;;;2.40;1.33;;;;;;;14.59;49.99;101480.34;10281534;28;20055;-73
2023/06/18 20:24:49;;;;;;;4.85;1.70;;;;;;;14.58;49.03;101478.72;10263659;29;20055;-77
2023/06/18 20:29:51;;;;;;;2.05;1.42;;;;;;;14.67;49.00;101481.66;10277174;29;20067;-77
2023/06/18 20:34:53;;;;;;;2.10;1.50;;;;;;;14.50;49.62;101479.31;10277729;28;20047;-79
2023/06/18 20:39:56;;;;;;;3.75;1.38;;;;;;;14.43;50.16;101471.34;10278575;29;20043;-81
2023/06/18 20:44:58;;;;;;;4.25;1.70;;;;;;;14.37;49.73;101475.22;10280354;28;20062;-76
2023/06/18 20:50:00;;;;;;;5.88;1.70;;;;;;;14.33;50.42;101478.84;10264267;29;20047;-80
2023/06/18 20:55:03;;;;;;;6.20;1.80;;;;;;;14.15;50.14;101472.88;10299074;28;20038;-80
2023/06/18 21:00:06;;;;;;;5.97;1.73;;;;;;;14.01;51.00;101479.28;10288342;29;20046;-80
2023/06/18 21:05:10;;;;;;;8.50;1.73;;;;;;;14.01;50.99;101484.81;10282958;29;20406;-80
2023/06/18 21:10:12;;;;;;;5.47;1.70;;;;;;;13.83;50.86;101489.03;10284471;29;20050;-80
2023/06/18 21:15:14;;;;;;;4.97;1.48;;;;;;;13.86;51.09;101488.47;10258582;29;20593;-81
2023/06/18 21:20:16;;;;;;;2.10;1.40;;;;;;;13.82;50.68;101487.38;10273782;29;20047;-80
2023/06/18 21:25:19;;;;;;;3.42;1.63;;;;;;;13.68;51.42;101491.84;10282360;28;20139;-79
2023/06/18 21:30:22;;;;;;;1.92;1.30;;;;;;;13.52;51.79;101496.56;10288121;29;20054;-80
2023/06/18 21:35:24;;;;;;;2.00;1.23;;;;;;;13.46;52.34;101504.03;10286231;29;20049;-79
2023/06/18 21:40:26;;;;;;;2.38;1.10;;;;;;;13.34;53.13;101502.69;10273369;29;20414;-79
2023/06/18 21:45:28;;;;;;;1.95;1.30;;;;;;;13.58;52.78;101514.78;10285988;29;20059;-79
2023/06/18 21:50:31;;;;;;;4.05;1.40;;;;;;;13.40;53.06;101505.16;10251550;29;20550;-79
2023/06/18 21:55:33;;;;;;;1.75;1.25;;;;;;;13.31;54.20;101515.09;10282885;29;20036;-75
2023/06/18 22:00:35;;;;;;;2.65;0.88;;;;;;;13.23;54.73;101501.88;10283460;28;20066;-78
2023/06/18 22:05:37;;;;;;;1.50;1.05;;;;;;;13.23;54.98;101512.91;10285258;29;20039;-77
2023/06/18 22:10:40;;;;;;;1.17;1.00;;;;;;;13.17;55.82;101508.47;10283630;29;20039;-79
2023/06/18 22:15:42;;;;;;;0.98;0.88;;;;;;;13.25;55.36;101505.19;10285367;29;20059;-78
2023/06/18 22:20:44;;;;;;;1.42;1.02;;;;;;;13.23;56.55;101512.91;10284092;29;20059;-79
2023/06/18 22:25:46;;;;;;;3.00;1.40;;;;;;;13.27;56.46;101516.75;10283374;29;20050;-77
2023/06/18 22:30:50;;;;;;;2.30;1.55;;;;;;;13.34;56.92;101506.25;10280735;29;20059;-73
2023/06/18 22:35:52;;;;;;;1.45;1.10;;;;;;;13.20;57.91;101507.97;10283431;29;20043;-73
2023/06/18 22:40:55;;;;;;;2.47;1.05;;;;;;;13.11;58.60;101510.41;10284946;28;20600;-74
2023/06/18 22:45:57;;;;;;;1.08;1.02;;;;;;;13.08;59.14;101510.13;10282072;29;20047;-75
2023/06/18 22:51:00;;;;;;;1.17;1.08;;;;;;;13.01;59.33;101515.91;10279383;28;20039;-75
2023/06/18 22:56:02;;;;;;;1.52;0.70;;;;;;;12.93;60.73;101519.22;10282629;29;20422;-75
2023/06/18 23:01:07;;;;;;;6.82;0.93;;;;;;;13.06;60.09;101501.31;10280441;29;20050;-75
2023/06/18 23:06:09;;;;;;;0.98;0.80;;;;;;;12.96;61.09;101504.91;10282139;29;20528;-73
2023/06/18 23:11:11;;;;;;;1.27;1.10;;;;;;;12.84;62.50;101505.19;10281532;28;20039;-74
2023/06/18 23:16:14;;;;;;;1.77;1.15;;;;;;;12.95;62.18;101511.50;10260098;29;20055;-74